Time;durP1;ratioP1;P1;durP2;ratioP2;P2;SDS_P1;SDS_P2;PMS_P1;PMS_P2;Temp;Humidity;BMP_temperature;BMP_pressure;BME280_temperature;BME280_humidity;BME280_pressure;Samples;Min_cycle;Max_cycle;Signal;HPM_P1;HPM_P2
2022/04/21 04:00:43;;;;;;;16.17;11.20;;;8.00;99.90;;;;;;5890363;23;20571;-76
2022/04/21 04:03:10;;;;;;;13.90;10.93;;;7.90;99.90;;;;;;4967897;28;20453;-78
2022/04/21 04:05:37;;;;;;;15.17;11.50;;;7.90;99.90;;;;;;4967211;28;20868;-75
2022/04/21 04:10:55;;;;;;;17.67;12.37;;;7.90;99.90;;;;;;4972127;28;20470;-75
2022/04/21 04:13:22;;;;;;;13.37;11.10;;;7.90;99.90;;;;;;4986612;28;20436;-75
2022/04/21 04:15:51;;;;;;;17.53;11.20;;;7.90;99.90;;;;;;4986327;28;20462;-79
2022/04/21 04:18:19;;;;;;;14.13;11.80;;;7.90;99.90;;;;;;4985177;28;20455;-75
2022/04/21 04:20:47;;;;;;;16.30;12.17;;;7.90;99.90;;;;;;4985921;28;20475;-77
2022/04/21 04:23:15;;;;;;;13.93;11.80;;;7.80;99.90;;;;;;4986442;28;20525;-76
2022/04/21 04:25:42;;;;;;;16.43;11.90;;;7.80;99.90;;;;;;4986150;28;20835;-75
2022/04/21 04:28:08;;;;;;;18.70;12.57;;;7.70;99.90;;;;;;4985423;28;20732;-76
2022/04/21 04:30:36;;;;;;;18.40;13.07;;;7.70;99.90;;;;;;4986003;28;21042;-77
2022/04/21 04:33:05;;;;;;;16.03;12.63;;;7.70;99.90;;;;;;4986246;28;20851;-76
2022/04/21 04:35:32;;;;;;;17.20;13.23;;;7.70;99.90;;;;;;4986696;28;20460;-76
2022/04/21 04:37:59;;;;;;;17.90;12.50;;;7.70;99.90;;;;;;4985783;28;20494;-78
2022/04/21 04:40:27;;;;;;;19.13;14.50;;;7.70;99.90;;;;;;4986119;28;20463;-78
2022/04/21 04:42:53;;;;;;;13.63;11.77;;;7.60;99.90;;;;;;4986158;28;20452;-77
2022/04/21 04:48:06;;;;;;;18.00;11.97;;;7.70;99.90;;;;;;4985214;28;20440;-79
2022/04/21 04:50:33;;;;;;;16.50;13.57;;;7.60;99.90;;;;;;4985981;28;20810;-77
2022/04/21 04:53:01;;;;;;;14.23;11.73;;;7.60;99.90;;;;;;4985770;28;20491;-78
2022/04/21 04:55:30;;;;;;;14.97;12.97;;;7.70;99.90;;;;;;4985895;28;20546;-79
2022/04/21 04:57:57;;;;;;;15.47;12.60;;;7.70;99.90;;;;;;4986373;28;20456;-77
2022/04/21 05:00:24;;;;;;;16.20;12.80;;;7.70;99.90;;;;;;4987466;28;20563;-79
2022/04/21 05:02:51;;;;;;;24.10;13.80;;;7.60;99.90;;;;;;4988604;28;20450;-77
2022/04/21 05:05:19;;;;;;;17.33;13.23;;;7.70;99.90;;;;;;4988487;28;20461;-80
2022/04/21 05:07:46;;;;;;;21.23;14.27;;;7.70;99.90;;;;;;4987776;28;20451;-80
2022/04/21 05:10:17;;;;;;;16.87;12.87;;;7.60;99.90;;;;;;4988416;28;20557;-78
2022/04/21 05:12:44;;;;;;;20.03;13.90;;;7.60;99.90;;;;;;4988443;28;20447;-77
2022/04/21 05:15:10;;;;;;;19.87;13.47;;;7.60;99.90;;;;;;4988787;28;20554;-77
2022/04/21 05:17:38;;;;;;;16.43;13.40;;;7.60;99.90;;;;;;4988086;28;20470;-78
2022/04/21 05:20:06;;;;;;;15.90;12.60;;;7.60;99.90;;;;;;4986053;28;20458;-66
2022/04/21 05:22:39;;;;;;;13.97;11.83;;;7.60;99.90;;;;;;4985477;28;20846;-66
2022/04/21 05:25:10;;;;;;;14.13;12.63;;;7.60;99.90;;;;;;4986607;28;20459;-77
2022/04/21 05:27:38;;;;;;;17.90;13.57;;;7.60;99.90;;;;;;4987662;28;20448;-77
2022/04/21 05:32:58;;;;;;;15.20;13.37;;;7.60;99.90;;;;;;4991772;28;20474;-80
2022/04/21 05:35:28;;;;;;;14.60;12.50;;;7.60;99.90;;;;;;4992056;28;20452;-77
2022/04/21 05:37:57;;;;;;;17.97;14.20;;;7.60;99.90;;;;;;4991093;28;20450;-79
2022/04/21 05:40:25;;;;;;;14.50;12.37;;;7.60;99.90;;;;;;4991833;28;20456;-77
2022/04/21 05:42:55;;;;;;;16.23;12.90;;;7.60;99.90;;;;;;4991800;28;20513;-79
2022/04/21 05:45:23;;;;;;;16.17;12.43;;;7.70;99.90;;;;;;4991886;28;20447;-80
2022/04/21 05:47:50;;;;;;;15.03;12.67;;;7.70;99.90;;;;;;4991104;28;20460;-80
2022/04/21 05:50:19;;;;;;;17.03;12.30;;;7.70;99.90;;;;;;4991800;28;20491;-77
2022/04/21 05:52:50;;;;;;;15.40;12.87;;;7.80;99.90;;;;;;4990915;28;20460;-77
2022/04/21 05:55:19;;;;;;;19.90;13.47;;;7.80;99.90;;;;;;4990501;28;20542;-77
2022/04/21 05:57:46;;;;;;;16.67;13.73;;;7.90;99.90;;;;;;4990878;28;20455;-79
2022/04/21 06:00:14;;;;;;;17.73;12.30;;;7.90;99.90;;;;;;4991136;28;20451;-77
2022/04/21 06:02:41;;;;;;;15.73;13.67;;;7.90;99.90;;;;;;4990885;28;20488;-77
2022/04/21 06:05:09;;;;;;;15.93;13.97;;;8.00;99.90;;;;;;4991040;28;20464;-78
2022/04/21 06:07:35;;;;;;;19.70;14.70;;;8.00;99.90;;;;;;4990409;28;20546;-82
2022/04/21 06:10:03;;;;;;;19.20;15.23;;;8.00;99.90;;;;;;4991176;28;20498;-77
2022/04/21 06:12:35;;;;;;;18.40;14.10;;;8.20;99.90;;;;;;4991090;28;20490;-76
2022/04/21 06:15:02;;;;;;;19.30;13.83;;;8.20;99.90;;;;;;4991652;28;20440;-77
2022/04/21 06:17:29;;;;;;;16.23;13.23;;;8.30;99.90;;;;;;4990325;28;20462;-78
2022/04/21 06:19:56;;;;;;;18.27;15.30;;;8.40;99.90;;;;;;4989193;28;20455;-79
2022/04/21 06:22:23;;;;;;;17.60;13.63;;;8.40;99.90;;;;;;4991106;28;20482;-76
2022/04/21 06:24:50;;;;;;;18.20;13.83;;;8.50;99.90;;;;;;4991120;28;20550;-77
2022/04/21 06:27:17;;;;;;;19.33;15.03;;;8.60;99.90;;;;;;4990332;28;20455;-80
2022/04/21 06:29:46;;;;;;;17.37;14.63;;;8.60;99.90;;;;;;4990763;28;20499;-77
2022/04/21 06:32:13;;;;;;;18.00;13.00;;;8.60;99.90;;;;;;4990953;28;20490;-78
2022/04/21 06:34:39;;;;;;;17.07;14.30;;;8.70;99.90;;;;;;4990853;28;20495;-78
2022/04/21 06:37:06;;;;;;;17.50;14.83;;;8.80;99.90;;;;;;4990109;28;20534;-77
2022/04/21 06:39:33;;;;;;;18.23;15.23;;;8.80;99.90;;;;;;4990769;28;20799;-79
2022/04/21 06:42:00;;;;;;;19.83;15.00;;;8.90;99.90;;;;;;4989749;28;20479;-77
2022/04/21 06:49:57;;;;;;;17.67;14.90;;;9.10;99.90;;;;;;4990620;28;20502;-77
2022/04/21 06:52:25;;;;;;;19.13;14.93;;;9.20;99.90;;;;;;4990294;28;21057;-77
2022/04/21 06:54:52;;;;;;;18.57;14.60;;;9.20;99.90;;;;;;4989712;28;20456;-77
2022/04/21 06:57:19;;;;;;;16.83;15.03;;;9.30;99.90;;;;;;4989721;28;20475;-77
2022/04/21 06:59:46;;;;;;;16.00;14.20;;;9.40;99.90;;;;;;4990492;28;20452;-79
2022/04/21 07:02:14;;;;;;;14.70;13.20;;;9.50;99.90;;;;;;4990178;28;20582;-77
2022/04/21 07:04:41;;;;;;;17.00;14.20;;;9.60;99.90;;;;;;4990105;28;20874;-77
2022/04/21 07:07:08;;;;;;;17.20;14.07;;;9.70;99.90;;;;;;4989407;28;20551;-77
2022/04/21 07:09:35;;;;;;;15.70;13.07;;;9.70;99.90;;;;;;4990323;28;20504;-77
2022/04/21 07:12:02;;;;;;;14.70;12.67;;;9.80;99.90;;;;;;4990282;28;20579;-77
2022/04/21 07:14:29;;;;;;;16.23;14.13;;;10.00;99.90;;;;;;4990217;28;20462;-77
2022/04/21 07:16:58;;;;;;;15.90;13.03;;;10.00;99.90;;;;;;4989680;28;20533;-77
2022/04/21 07:19:26;;;;;;;16.10;12.17;;;10.20;99.90;;;;;;4989864;28;20807;-78
2022/04/21 07:21:53;;;;;;;13.57;11.70;;;10.30;99.90;;;;;;4989957;28;20574;-78
2022/04/21 07:24:20;;;;;;;14.07;11.90;;;10.30;99.90;;;;;;4989721;28;20462;-78
2022/04/21 07:26:47;;;;;;;14.13;11.37;;;10.40;99.90;;;;;;4988257;28;21146;-79
2022/04/21 07:29:14;;;;;;;15.33;11.07;;;10.60;99.90;;;;;;4988703;28;20542;-80
2022/04/21 07:31:41;;;;;;;11.80;10.63;;;10.70;99.90;;;;;;4988818;28;21126;-77
2022/04/21 07:34:08;;;;;;;14.10;12.17;;;10.80;99.90;;;;;;4988612;28;20462;-77
2022/04/21 07:36:37;;;;;;;13.13;10.77;;;10.90;99.90;;;;;;4988848;28;21337;-79
2022/04/21 07:39:03;;;;;;;12.63;11.30;;;11.10;99.90;;;;;;4989860;28;20459;-79
2022/04/21 07:41:30;;;;;;;12.00;10.30;;;11.20;99.90;;;;;;4989703;28;20471;-77
2022/04/21 07:43:57;;;;;;;11.93;10.73;;;11.30;99.90;;;;;;4989768;28;20451;-77
2022/04/21 07:46:24;;;;;;;11.33;10.13;;;11.50;99.90;;;;;;4988682;28;20973;-77
2022/04/21 07:51:36;;;;;;;10.47;9.40;;;11.70;99.90;;;;;;4989424;28;20454;-77
2022/04/21 07:54:05;;;;;;;10.33;9.33;;;11.90;99.90;;;;;;4989445;28;20460;-77
2022/04/21 07:56:32;;;;;;;11.20;8.83;;;12.10;99.90;;;;;;4988845;28;20456;-78
2022/04/21 07:58:59;;;;;;;9.60;8.27;;;12.20;99.90;;;;;;4989351;28;20458;-77
2022/04/21 08:01:26;;;;;;;10.00;8.30;;;12.30;99.90;;;;;;4989100;28;20539;-76
2022/04/21 08:03:53;;;;;;;9.37;8.37;;;12.50;99.90;;;;;;4988854;28;20502;-76
2022/04/21 08:06:20;;;;;;;8.40;7.60;;;12.70;99.90;;;;;;4988283;28;20468;-79
2022/04/21 08:08:48;;;;;;;8.50;7.57;;;12.80;99.90;;;;;;4989092;28;20458;-76
2022/04/21 08:11:15;;;;;;;9.30;8.30;;;12.90;99.90;;;;;;4989148;28;20507;-77
2022/04/21 08:13:42;;;;;;;9.17;7.60;;;13.10;99.90;;;;;;4989096;28;20545;-76
2022/04/21 08:16:09;;;;;;;7.63;6.83;;;13.20;99.90;;;;;;4988903;28;20551;-77
2022/04/21 08:18:36;;;;;;;8.93;7.60;;;13.40;99.90;;;;;;4988212;28;20538;-76
2022/04/21 08:21:03;;;;;;;8.63;6.73;;;13.50;99.90;;;;;;4988799;28;20547;-78
2022/04/21 08:23:30;;;;;;;7.60;6.20;;;13.60;99.90;;;;;;4988741;28;21296;-75
2022/04/21 08:34:20;;;;;;;7.77;7.07;;;13.90;99.90;;;;;;4988624;28;20483;-76
2022/04/21 08:36:47;;;;;;;7.10;6.40;;;14.00;99.90;;;;;;4987791;28;20466;-76
2022/04/21 08:39:13;;;;;;;7.20;6.43;;;14.00;99.90;;;;;;4988634;28;20926;-78
2022/04/21 08:41:48;;;;;;;7.70;6.90;;;14.00;99.90;;;;;;4988709;28;20550;-76
2022/04/21 08:44:19;;;;;;;7.27;6.57;;;14.20;99.90;;;;;;4988826;28;20453;-79
2022/04/21 08:46:47;;;;;;;8.57;6.90;;;14.30;99.90;;;;;;4988119;28;20444;-77
2022/04/21 08:49:18;;;;;;;7.80;7.00;;;14.40;99.90;;;;;;4988663;28;20550;-76
2022/04/21 08:51:45;;;;;;;7.73;7.00;;;14.50;99.90;;;;;;4988205;28;20468;-78
2022/04/21 08:54:12;;;;;;;7.33;6.63;;;14.60;99.90;;;;;;4988194;28;20542;-76
2022/04/21 08:56:39;;;;;;;9.90;6.50;;;14.70;99.90;;;;;;4987517;28;21355;-81
2022/04/21 08:59:07;;;;;;;7.00;6.30;;;14.80;99.90;;;;;;4988205;28;20467;-76
2022/04/21 09:01:34;;;;;;;6.80;6.03;;;14.90;99.90;;;;;;4987203;28;21055;-75
2022/04/21 09:04:01;;;;;;;6.60;5.67;;;14.90;99.90;;;;;;4987880;28;20867;-77
2022/04/21 09:06:29;;;;;;;7.37;6.20;;;15.10;99.90;;;;;;4993947;28;20457;-77
2022/04/21 09:09:14;;;;;;;7.07;5.97;;;15.10;99.90;;;;;;4995149;28;20459;-76
2022/04/21 09:11:43;;;;;;;6.70;5.60;;;15.10;99.90;;;;;;4993372;28;20581;-77
2022/04/21 09:14:16;;;;;;;6.90;6.20;;;15.20;99.90;;;;;;4994885;28;20467;-79
2022/04/21 09:16:43;;;;;;;6.80;5.43;;;15.20;99.90;;;;;;4993904;28;20456;-77
2022/04/21 09:19:10;;;;;;;7.70;5.20;;;15.30;99.90;;;;;;4994884;28;20466;-75
2022/04/21 09:21:38;;;;;;;5.77;5.27;;;15.30;99.90;;;;;;4994829;28;20561;-75
2022/04/21 09:24:19;;;;;;;4.47;4.07;;;15.30;99.90;;;;;;4994425;28;20458;-74
2022/04/21 09:26:47;;;;;;;4.30;3.90;;;15.40;99.90;;;;;;4993825;28;20462;-75
2022/04/21 09:29:24;;;;;;;4.90;4.50;;;15.40;99.90;;;;;;4994512;28;20956;-78
2022/04/21 09:31:57;;;;;;;4.73;4.23;;;15.50;99.90;;;;;;4994590;28;21339;-79
2022/04/21 09:34:24;;;;;;;4.67;4.17;;;15.60;99.90;;;;;;4994720;28;20443;-77
2022/04/21 09:36:54;;;;;;;7.30;4.10;;;15.70;99.90;;;;;;4993742;28;20463;-76
2022/04/21 09:39:22;;;;;;;3.93;3.63;;;15.80;99.90;;;;;;4994860;28;20487;-76
2022/04/21 09:41:53;;;;;;;4.87;4.27;;;15.90;99.90;;;;;;4994094;28;20511;-76
2022/04/21 09:47:18;;;;;;;5.40;3.70;;;16.20;99.90;;;;;;4993849;28;20933;-76
2022/04/21 09:49:45;;;;;;;4.17;3.77;;;16.30;99.90;;;;;;4994474;28;20448;-76
2022/04/21 09:52:13;;;;;;;4.50;3.57;;;16.20;99.90;;;;;;4994568;28;20475;-77
2022/04/21 09:54:40;;;;;;;3.60;3.27;;;16.20;99.90;;;;;;4994651;28;20464;-76
2022/04/21 09:57:08;;;;;;;3.40;3.10;;;16.30;99.90;;;;;;4994007;28;20818;-76
2022/04/21 09:59:38;;;;;;;4.20;3.30;;;16.40;99.90;;;;;;4994561;28;20462;-78
2022/04/21 10:02:06;;;;;;;3.40;3.10;;;16.40;99.90;;;;;;4994080;28;20606;-81
2022/04/21 10:04:32;;;;;;;2.77;2.57;;;16.50;99.90;;;;;;4994478;28;20460;-76
2022/04/21 10:06:59;;;;;;;4.60;2.60;;;16.60;99.70;;;;;;4993587;28;20461;-76
2022/04/21 10:09:28;;;;;;;7.70;3.33;;;16.60;99.90;;;;;;4994156;28;20460;-76
2022/04/21 10:11:58;;;;;;;6.50;3.60;;;16.70;99.90;;;;;;4993920;28;20872;-76
2022/04/21 10:14:26;;;;;;;3.10;2.90;;;16.80;99.90;;;;;;4994302;28;20505;-76
2022/04/21 10:16:54;;;;;;;2.80;2.60;;;16.90;99.70;;;;;;4990666;28;20447;-78
2022/04/21 10:19:23;;;;;;;5.40;3.53;;;17.10;99.30;;;;;;4990780;28;20554;-78
2022/04/21 10:21:53;;;;;;;3.60;2.80;;;17.20;99.40;;;;;;4989314;28;20486;-77
2022/04/21 10:24:23;;;;;;;2.90;2.63;;;17.30;99.60;;;;;;4991013;28;20490;-81
2022/04/21 10:26:50;;;;;;;3.07;2.77;;;17.50;98.80;;;;;;4990055;28;20447;-78
2022/04/21 10:29:18;;;;;;;3.13;2.63;;;17.50;99.30;;;;;;4991031;28;20465;-77
2022/04/21 10:31:47;;;;;;;2.93;2.67;;;17.50;98.10;;;;;;4990472;28;20499;-78
2022/04/21 10:34:31;;;;;;;2.90;2.70;;;17.70;98.00;;;;;;4990585;28;20495;-77
2022/04/21 10:37:17;;;;;;;2.97;2.60;;;17.70;97.70;;;;;;4990185;28;20459;-80
2022/04/21 10:40:05;;;;;;;2.57;2.37;;;17.80;97.50;;;;;;4989402;28;20503;-78
2022/04/21 10:42:59;;;;;;;3.93;2.70;;;17.90;98.00;;;;;;4989911;28;20503;-76
2022/04/21 10:45:28;;;;;;;2.77;2.43;;;17.90;97.00;;;;;;4989676;28;20995;-78
2022/04/21 10:48:06;;;;;;;3.17;2.73;;;17.90;97.80;;;;;;4988486;28;20891;-77
2022/04/21 10:50:35;;;;;;;3.13;2.83;;;17.90;97.40;;;;;;4989153;28;20921;-78
2022/04/21 10:58:54;;;;;;;3.80;3.43;;;18.30;97.20;;;;;;4988486;28;20474;-77
2022/04/21 11:01:40;;;;;;;3.63;3.07;;;18.40;97.20;;;;;;4989000;28;20506;-80
2022/04/21 11:04:32;;;;;;;4.10;3.53;;;18.40;97.50;;;;;;4989001;28;20989;-78
2022/04/21 11:07:11;;;;;;;3.57;3.27;;;18.60;96.50;;;;;;4988248;28;20513;-78
2022/04/21 11:09:44;;;;;;;4.03;3.60;;;18.60;97.70;;;;;;4989278;28;20458;-78
2022/04/21 11:12:16;;;;;;;3.40;3.10;;;18.60;96.90;;;;;;4988590;28;21030;-81
2022/04/21 11:14:44;;;;;;;3.73;3.43;;;18.70;96.20;;;;;;4988703;28;20460;-77
2022/04/21 11:17:11;;;;;;;3.70;3.40;;;18.80;96.10;;;;;;4988289;28;20460;-77
2022/04/21 11:19:45;;;;;;;4.67;4.20;;;18.80;96.20;;;;;;4988491;28;20460;-78
2022/04/21 11:22:15;;;;;;;4.77;4.30;;;18.70;96.50;;;;;;4988908;28;20467;-78
2022/04/21 11:25:02;;;;;;;3.30;3.00;;;18.60;96.50;;;;;;4988714;28;21246;-78
2022/04/21 11:27:30;;;;;;;4.40;3.10;;;18.60;96.20;;;;;;4987726;28;20940;-76
2022/04/21 11:30:01;;;;;;;3.30;2.57;;;18.50;95.60;;;;;;4988575;28;20450;-80
2022/04/21 11:32:28;;;;;;;3.20;2.83;;;18.50;95.70;;;;;;4988270;28;20930;-77
2022/04/21 11:35:00;;;;;;;3.10;2.47;;;18.50;96.00;;;;;;4989191;28;20827;-77
2022/04/21 11:37:46;;;;;;;2.97;2.73;;;18.60;95.70;;;;;;4987484;28;20498;-77
2022/04/21 11:40:31;;;;;;;3.10;2.80;;;18.70;95.70;;;;;;4989359;28;20534;-80
2022/04/21 11:42:59;;;;;;;3.70;2.40;;;18.80;94.90;;;;;;4986809;28;20451;-72
2022/04/21 11:45:28;;;;;;;4.03;2.53;;;18.90;95.90;;;;;;4986083;28;20470;-71
2022/04/21 11:47:55;;;;;;;3.70;2.50;;;19.00;95.20;;;;;;4986135;28;20448;-78
2022/04/21 11:50:27;;;;;;;4.33;2.53;;;19.10;95.20;;;;;;4988468;28;20993;-77
2022/04/21 11:52:57;;;;;;;3.23;2.93;;;19.10;95.90;;;;;;4988223;28;20966;-78
2022/04/21 11:55:26;;;;;;;4.63;3.10;;;19.20;96.60;;;;;;4988219;28;20555;-78
2022/04/21 11:57:53;;;;;;;3.57;3.27;;;19.20;95.20;;;;;;4987879;28;20452;-79
2022/04/21 12:08:32;;;;;;;3.00;2.70;;;19.10;95.30;;;;;;4987408;28;20604;-78
2022/04/21 12:10:59;;;;;;;3.20;2.90;;;19.00;95.50;;;;;;4987483;28;20594;-78
2022/04/21 12:13:26;;;;;;;4.07;2.90;;;19.00;95.90;;;;;;4988047;28;20455;-78
2022/04/21 12:15:53;;;;;;;4.53;2.77;;;19.10;95.60;;;;;;4988156;28;20539;-78
2022/04/21 12:18:20;;;;;;;4.23;3.83;;;19.20;95.80;;;;;;4987393;28;20466;-79
2022/04/21 12:20:54;;;;;;;5.53;3.30;;;19.30;94.90;;;;;;4989666;28;20476;-79
2022/04/21 12:23:25;;;;;;;3.47;3.10;;;19.30;94.40;;;;;;4989562;28;21031;-79
2022/04/21 12:25:53;;;;;;;4.67;3.13;;;19.30;94.30;;;;;;4989391;28;20455;-78
2022/04/21 12:28:20;;;;;;;3.60;3.10;;;19.20;94.50;;;;;;4985972;28;20464;-79
2022/04/21 12:30:47;;;;;;;4.87;3.63;;;19.20;94.90;;;;;;4987395;28;20527;-78
2022/04/21 12:33:14;;;;;;;4.40;3.63;;;19.20;95.30;;;;;;4987273;28;20639;-80
2022/04/21 12:35:42;;;;;;;4.60;4.20;;;19.30;94.90;;;;;;4987383;28;20820;-78
2022/04/21 12:40:56;;;;;;;4.63;3.37;;;19.30;94.80;;;;;;4986875;28;20447;-79
2022/04/21 12:43:24;;;;;;;4.27;3.87;;;19.40;94.40;;;;;;4987009;28;20466;-78
2022/04/21 12:45:51;;;;;;;4.10;3.70;;;19.50;94.40;;;;;;4986970;28;20455;-80
2022/04/21 12:48:22;;;;;;;4.53;3.27;;;19.50;94.00;;;;;;4985341;28;20545;-79
2022/04/21 12:50:49;;;;;;;4.07;3.67;;;19.60;93.90;;;;;;4986117;28;20471;-79
2022/04/21 12:53:26;;;;;;;4.20;3.70;;;19.60;94.00;;;;;;4987050;28;21054;-79
2022/04/21 12:55:55;;;;;;;4.00;3.60;;;19.60;93.60;;;;;;4986939;28;20451;-80
2022/04/21 12:58:32;;;;;;;5.20;3.70;;;19.50;94.10;;;;;;4986333;28;20459;-79
2022/04/21 13:01:02;;;;;;;5.47;4.40;;;19.40;93.70;;;;;;4986851;28;20479;-78
2022/04/21 13:03:30;;;;;;;3.90;3.50;;;19.40;93.60;;;;;;4987263;28;20466;-80
2022/04/21 13:05:58;;;;;;;5.60;4.13;;;19.20;93.70;;;;;;4987321;28;20455;-82
2022/04/21 13:08:26;;;;;;;5.07;4.00;;;19.20;93.20;;;;;;4986715;28;20510;-78
2022/04/21 13:10:56;;;;;;;4.30;3.90;;;19.10;93.10;;;;;;4986365;28;20995;-81
2022/04/21 13:13:24;;;;;;;5.67;4.70;;;19.10;93.20;;;;;;4986661;28;20554;-79
2022/04/21 13:15:51;;;;;;;6.00;4.10;;;19.10;93.40;;;;;;4986867;28;20887;-78
2022/04/21 13:18:18;;;;;;;4.60;3.60;;;19.10;93.60;;;;;;4986384;28;20539;-78
2022/04/21 13:23:30;;;;;;;6.93;3.33;;;19.10;93.80;;;;;;4987955;28;20422;-78
2022/04/21 13:26:00;;;;;;;6.90;3.50;;;19.10;93.70;;;;;;4987954;28;20450;-77
2022/04/21 13:28:27;;;;;;;3.50;3.20;;;19.00;93.40;;;;;;4986904;28;20827;-79
2022/04/21 13:33:35;;;;;;;3.20;2.90;;;18.90;93.50;;;;;;4986146;28;20468;-78
2022/04/21 13:36:03;;;;;;;7.90;3.60;;;18.80;93.70;;;;;;4987515;28;20448;-78
2022/04/21 13:38:30;;;;;;;4.63;3.47;;;18.80;93.60;;;;;;4987296;28;20490;-79
2022/04/21 13:40:58;;;;;;;5.20;3.80;;;18.80;93.70;;;;;;4987547;28;20480;-69
2022/04/21 13:43:26;;;;;;;4.17;3.60;;;18.80;93.90;;;;;;4988242;28;20460;-78
2022/04/21 13:45:54;;;;;;;4.87;3.23;;;18.70;93.90;;;;;;4988096;28;20464;-79
2022/04/21 13:48:21;;;;;;;5.63;3.70;;;18.60;93.60;;;;;;4987429;28;20451;-80
2022/04/21 13:50:48;;;;;;;4.37;3.70;;;18.60;93.50;;;;;;4988725;28;20533;-79
2022/04/21 13:53:14;;;;;;;4.10;3.13;;;18.50;92.40;;;;;;4991800;28;20495;-80
2022/04/21 13:55:41;;;;;;;5.30;2.90;;;18.50;93.00;;;;;;4991385;28;20460;-79
2022/04/21 13:58:10;;;;;;;3.10;2.60;;;18.40;92.80;;;;;;4991780;28;20461;-79
2022/04/21 14:00:40;;;;;;;3.37;2.67;;;18.40;92.80;;;;;;4989430;28;20475;-79
2022/04/21 14:03:07;;;;;;;4.30;2.80;;;18.40;93.10;;;;;;4989554;28;20559;-85
2022/04/21 14:05:36;;;;;;;4.97;3.40;;;18.40;93.10;;;;;;4989983;28;20555;-79
2022/04/21 14:08:04;;;;;;;3.40;2.80;;;18.30;93.00;;;;;;4989340;28;20487;-79
2022/04/21 14:10:31;;;;;;;3.17;2.87;;;18.30;93.30;;;;;;4989460;28;20907;-80
2022/04/21 14:12:58;;;;;;;2.90;2.63;;;18.40;93.50;;;;;;4989292;28;20503;-80
2022/04/21 14:15:26;;;;;;;3.30;2.70;;;18.40;93.30;;;;;;4989536;28;20451;-79
2022/04/21 14:17:53;;;;;;;2.70;2.50;;;18.40;93.20;;;;;;4989006;28;20463;-79
2022/04/21 14:20:19;;;;;;;2.60;2.40;;;18.50;92.90;;;;;;4989298;28;20454;-83
2022/04/21 14:22:46;;;;;;;2.70;2.30;;;18.50;93.10;;;;;;4989271;28;20455;-82
2022/04/21 14:25:14;;;;;;;2.40;2.20;;;18.50;92.30;;;;;;4989106;28;20974;-79
2022/04/21 14:27:40;;;;;;;3.90;2.60;;;18.50;92.50;;;;;;4988455;28;20967;-79
2022/04/21 14:30:09;;;;;;;3.90;2.30;;;18.50;92.20;;;;;;4989112;28;20459;-79
2022/04/21 14:32:37;;;;;;;2.90;2.60;;;18.40;92.30;;;;;;4988640;28;20503;-79
2022/04/21 14:35:05;;;;;;;3.20;2.40;;;18.30;92.50;;;;;;4989300;28;20452;-81
2022/04/21 14:45:44;;;;;;;3.00;2.70;;;18.20;93.40;;;;;;4989776;28;21146;-77
2022/04/21 14:48:13;;;;;;;3.60;2.57;;;18.20;92.60;;;;;;4988608;28;20452;-78
2022/04/21 14:50:40;;;;;;;2.60;2.40;;;18.20;92.10;;;;;;4989769;28;20479;-78
2022/04/21 14:53:07;;;;;;;3.77;2.83;;;18.10;92.20;;;;;;4989614;28;20586;-78
2022/04/21 14:55:33;;;;;;;2.83;2.53;;;18.10;92.60;;;;;;4988775;28;20455;-78
2022/04/21 14:58:00;;;;;;;3.70;2.50;;;18.00;92.10;;;;;;4988866;28;20462;-78
2022/04/21 15:00:27;;;;;;;2.93;2.57;;;18.00;92.80;;;;;;4989007;28;20974;-79
2022/04/21 15:02:55;;;;;;;3.70;2.60;;;18.10;92.30;;;;;;4988926;28;20442;-78
2022/04/21 15:05:23;;;;;;;5.07;3.03;;;18.10;92.70;;;;;;4989100;28;20962;-78
2022/04/21 15:07:50;;;;;;;5.20;3.33;;;18.10;92.40;;;;;;4988207;28;20967;-79
2022/04/21 15:10:17;;;;;;;6.03;3.90;;;18.10;92.30;;;;;;4988256;28;20463;-83
2022/04/21 15:12:44;;;;;;;6.07;4.13;;;18.20;92.70;;;;;;4988422;28;20491;-78
2022/04/21 15:15:11;;;;;;;4.87;4.07;;;18.30;92.80;;;;;;4986947;28;20444;-80
2022/04/21 15:17:38;;;;;;;4.40;3.70;;;18.30;92.60;;;;;;4987657;28;20451;-78
2022/04/21 15:20:06;;;;;;;8.10;3.30;;;18.20;92.50;;;;;;4989329;28;20894;-79
2022/04/21 15:22:34;;;;;;;2.80;2.60;;;18.20;92.50;;;;;;4988854;28;20472;-78
2022/04/21 15:25:01;;;;;;;7.43;3.20;;;18.10;92.20;;;;;;4988460;28;20527;-79
2022/04/21 15:27:28;;;;;;;3.70;2.83;;;18.00;91.80;;;;;;4988532;28;20487;-80
2022/04/21 15:29:55;;;;;;;3.30;3.00;;;18.00;92.20;;;;;;4988568;28;20463;-81
2022/04/21 15:32:22;;;;;;;3.70;2.50;;;18.00;92.40;;;;;;4988756;28;20495;-79
2022/04/21 15:34:49;;;;;;;3.00;2.70;;;17.90;92.10;;;;;;4988539;28;20831;-78
2022/04/21 15:37:15;;;;;;;4.87;3.20;;;17.90;91.80;;;;;;4987895;28;20460;-78
2022/04/21 15:39:45;;;;;;;3.30;3.00;;;17.80;92.10;;;;;;4987426;28;20506;-77
2022/04/21 15:42:12;;;;;;;4.60;2.70;;;17.80;91.90;;;;;;4987269;28;20979;-78
2022/04/21 15:44:39;;;;;;;3.37;2.70;;;17.70;91.80;;;;;;4987661;28;20451;-77
2022/04/21 15:47:06;;;;;;;5.13;3.00;;;17.60;91.40;;;;;;4987768;28;20808;-77
2022/04/21 15:49:33;;;;;;;3.63;2.23;;;17.50;91.20;;;;;;4987769;28;20459;-78
2022/04/21 15:52:00;;;;;;;3.00;2.53;;;17.50;91.20;;;;;;4986749;28;20535;-78
2022/04/21 15:59:59;;;;;;;3.40;2.60;;;17.30;91.60;;;;;;4986591;28;20574;-78
2022/04/21 16:02:26;;;;;;;4.33;2.43;;;17.30;91.80;;;;;;4986473;28;20862;-77
2022/04/21 16:04:53;;;;;;;3.10;2.60;;;17.30;91.60;;;;;;4986594;28;20463;-77
2022/04/21 16:07:20;;;;;;;2.20;2.00;;;17.30;91.60;;;;;;4985973;28;20460;-78
2022/04/21 16:09:47;;;;;;;4.10;2.37;;;17.20;92.10;;;;;;4986373;28;20548;-78
2022/04/21 16:12:17;;;;;;;2.70;2.50;;;17.20;91.20;;;;;;4985936;28;20590;-78
2022/04/21 16:14:44;;;;;;;2.70;2.20;;;17.20;91.10;;;;;;4985473;28;20463;-79
2022/04/21 16:17:11;;;;;;;2.37;2.17;;;17.20;91.20;;;;;;4985814;28;20461;-77
2022/04/21 16:19:38;;;;;;;2.83;1.97;;;17.10;91.10;;;;;;4986235;28;20464;-79
2022/04/21 16:22:05;;;;;;;2.50;2.27;;;17.10;91.10;;;;;;4985271;28;20575;-78
2022/04/21 16:24:32;;;;;;;3.57;2.47;;;16.90;90.70;;;;;;4986471;28;20494;-77
2022/04/21 16:26:59;;;;;;;3.27;2.87;;;16.90;91.60;;;;;;4985799;28;20482;-77
2022/04/21 16:29:27;;;;;;;3.67;2.53;;;16.80;90.80;;;;;;4985838;28;20905;-77
2022/04/21 16:31:59;;;;;;;4.07;2.73;;;16.70;91.10;;;;;;4986267;28;20660;-79
2022/04/21 16:34:26;;;;;;;3.30;2.40;;;16.70;90.90;;;;;;4985983;28;20963;-78
2022/04/21 16:36:53;;;;;;;3.27;2.97;;;16.70;91.30;;;;;;4985806;28;20463;-78
2022/04/21 16:39:20;;;;;;;2.67;2.47;;;16.70;91.30;;;;;;4985892;28;21011;-77
2022/04/21 16:41:47;;;;;;;2.50;2.30;;;16.70;90.80;;;;;;4985720;28;20753;-79
2022/04/21 16:44:14;;;;;;;2.70;2.40;;;16.60;91.10;;;;;;4986285;28;20461;-78
2022/04/21 16:46:42;;;;;;;10.33;2.83;;;16.60;91.20;;;;;;4985445;28;20769;-77
2022/04/21 16:49:09;;;;;;;3.27;2.40;;;16.70;91.30;;;;;;4985827;28;20462;-79
2022/04/21 16:51:36;;;;;;;2.57;2.37;;;16.60;91.80;;;;;;4985498;28;20843;-77
2022/04/21 16:54:03;;;;;;;2.93;2.20;;;16.60;92.20;;;;;;4986235;28;20492;-77
2022/04/21 16:56:30;;;;;;;3.93;3.10;;;16.70;92.50;;;;;;4985229;28;20571;-78
2022/04/21 16:58:56;;;;;;;4.53;2.70;;;16.60;92.90;;;;;;4985564;28;21133;-78
2022/04/21 17:04:10;;;;;;;2.90;2.60;;;16.60;92.70;;;;;;4986110;28;20435;-78
2022/04/21 17:06:37;;;;;;;3.53;2.50;;;16.60;92.70;;;;;;4985127;28;20491;-78
2022/04/21 17:09:04;;;;;;;3.10;2.47;;;16.50;93.00;;;;;;4985685;28;21032;-77
2022/04/21 17:11:31;;;;;;;9.20;2.50;;;16.50;93.10;;;;;;4985784;28;20570;-79
2022/04/21 17:13:59;;;;;;;4.30;2.83;;;16.50;93.30;;;;;;4985581;28;20950;-77
2022/04/21 17:16:26;;;;;;;3.07;2.50;;;16.50;93.10;;;;;;4985497;28;20517;-78
2022/04/21 17:18:53;;;;;;;3.77;2.77;;;16.50;93.60;;;;;;4985231;28;20876;-77
2022/04/21 17:21:21;;;;;;;4.40;2.77;;;16.50;93.60;;;;;;4985114;28;20518;-77
2022/04/21 17:23:48;;;;;;;3.20;2.30;;;16.50;93.90;;;;;;4985790;28;20463;-77
2022/04/21 17:26:15;;;;;;;2.80;2.43;;;16.50;93.50;;;;;;4986887;28;20460;-78
2022/04/21 17:28:42;;;;;;;2.20;2.00;;;16.40;93.70;;;;;;4989406;28;20469;-77
2022/04/21 17:31:09;;;;;;;4.73;2.87;;;16.40;93.80;;;;;;4989692;28;20482;-78
2022/04/21 17:33:36;;;;;;;4.07;2.87;;;16.40;93.60;;;;;;4989402;28;20505;-78
2022/04/21 17:36:03;;;;;;;5.17;2.70;;;16.40;93.70;;;;;;4988900;28;20459;-78
2022/04/21 17:38:31;;;;;;;4.00;3.43;;;16.40;93.60;;;;;;4987592;28;20463;-77
2022/04/21 17:40:58;;;;;;;3.50;2.47;;;16.30;93.70;;;;;;4988716;28;20837;-78
2022/04/21 17:43:25;;;;;;;2.67;2.13;;;16.30;93.60;;;;;;4989272;28;20913;-78
2022/04/21 17:45:52;;;;;;;3.63;2.67;;;16.30;94.40;;;;;;4989186;28;20510;-77
2022/04/21 17:48:20;;;;;;;3.73;2.87;;;16.20;93.80;;;;;;4988343;28;20464;-77
2022/04/21 17:50:47;;;;;;;3.40;2.97;;;16.10;93.70;;;;;;4989814;28;20803;-79
2022/04/21 17:53:14;;;;;;;6.77;2.43;;;16.00;93.90;;;;;;4989347;28;20593;-77
2022/04/21 17:55:42;;;;;;;5.00;2.87;;;16.00;93.80;;;;;;4989015;28;20531;-78